Time;durP1;ratioP1;P1;durP2;ratioP2;P2;SDS_P1;SDS_P2;PMS_P1;PMS_P2;Temp;Humidity;BMP_temperature;BMP_pressure;BME280_temperature;BME280_humidity;BME280_pressure;Samples;Min_cycle;Max_cycle;Signal;HPM_P1;HPM_P2
2022/10/24 00:00:28;;;;;;;11.63;8.73;;;;;;;14.29;69.95;100040.94;5039816;28;97944;-87
2022/10/24 00:02:54;;;;;;;13.43;8.60;;;;;;;14.33;69.69;100045.13;5035291;28;97061;-88
2022/10/24 00:05:19;;;;;;;14.52;8.18;;;;;;;14.34;69.58;100060.00;5018472;27;97828;-87
2022/10/24 00:07:45;;;;;;;15.30;8.68;;;;;;;14.32;69.60;100052.19;5017740;28;101798;-87
2022/10/24 00:10:12;;;;;;;12.70;8.40;;;;;;;14.38;69.64;100062.41;5029797;28;98213;-87
2022/10/24 00:12:38;;;;;;;11.20;8.25;;;;;;;14.34;69.94;100073.22;5034411;28;96981;-88
2022/10/24 00:15:04;;;;;;;20.45;9.52;;;;;;;14.39;69.68;100113.44;5051440;27;96852;-88
2022/10/24 00:17:30;;;;;;;15.10;8.98;;;;;;;14.30;69.22;100096.28;5018345;28;101420;-88
2022/10/24 00:19:57;;;;;;;15.63;8.98;;;;;;;14.23;69.56;100103.69;5051466;27;101016;-88
2022/10/24 00:22:23;;;;;;;13.85;9.07;;;;;;;14.07;70.09;100078.16;5019170;28;96705;-87
2022/10/24 00:24:49;;;;;;;14.18;9.07;;;;;;;14.06;70.56;100085.25;5035409;28;97981;-87
2022/10/24 00:27:15;;;;;;;15.40;9.10;;;;;;;13.82;71.17;100053.06;5017816;28;101425;-86
2022/10/24 00:29:40;;;;;;;16.02;10.35;;;;;;;13.82;71.49;100069.75;5047744;27;98161;-87
2022/10/24 00:32:06;;;;;;;10.48;8.27;;;;;;;13.77;72.16;100061.22;5035476;28;96687;-88
2022/10/24 00:34:31;;;;;;;15.60;8.10;;;;;;;13.78;72.01;100044.44;5051923;27;96818;-88
2022/10/24 00:36:57;;;;;;;17.80;8.73;;;;;;;13.94;71.67;100068.25;5035002;28;98162;-87
2022/10/24 00:39:22;;;;;;;13.18;8.85;;;;;;;13.96;71.66;100063.78;5034739;28;101637;-88
2022/10/24 00:41:48;;;;;;;14.88;8.55;;;;;;;13.98;71.85;100059.25;5018111;28;96956;-86
2022/10/24 00:44:25;;;;;;;12.60;8.05;;;;;;;14.09;71.77;100066.59;5018571;28;96812;-87
2022/10/24 00:46:58;;;;;;;12.30;7.50;;;;;;;14.22;71.81;100075.59;5028492;28;97500;-88
2022/10/24 00:49:28;;;;;;;14.85;8.00;;;;;;;14.19;72.75;100054.59;5043998;27;100053;-88
2022/10/24 00:51:59;;;;;;;12.98;8.25;;;;;;;14.33;72.24;100066.25;5068554;27;96956;-89
2022/10/24 00:54:25;;;;;;;16.92;8.05;;;;;;;14.33;72.63;100048.59;5034871;27;96759;-87
2022/10/24 00:57:28;;;;;;;14.05;8.77;;;;;;;14.39;72.73;100039.50;5017437;28;101409;-88
2022/10/24 01:00:02;;;;;;;15.73;9.02;;;;;;;14.45;72.21;100034.72;5019522;27;97934;-89
2022/10/24 01:02:27;;;;;;;12.02;8.10;;;;;;;14.34;72.03;100034.47;5017848;28;96753;-87
2022/10/24 01:04:53;;;;;;;12.13;7.38;;;;;;;14.36;72.38;100037.88;5015573;28;96993;-87
2022/10/24 01:07:25;;;;;;;13.20;6.97;;;;;;;14.42;72.67;100044.63;5033640;27;98420;-88
2022/10/24 01:10:14;;;;;;;10.23;7.95;;;;;;;14.43;72.36;100038.41;5033598;28;100707;-88
2022/10/24 01:12:53;;;;;;;13.27;7.80;;;;;;;14.44;72.01;100034.81;5034984;27;96999;-88
2022/10/24 01:15:24;;;;;;;15.15;7.70;;;;;;;14.36;72.35;100018.53;5032398;27;96723;-88
2022/10/24 01:18:10;;;;;;;14.02;8.70;;;;;;;14.43;71.77;100033.97;5065280;27;100242;-87
2022/10/24 01:21:05;;;;;;;11.27;8.18;;;;;;;14.30;72.26;100027.66;5018282;28;97357;-88
2022/10/24 01:23:40;;;;;;;13.10;8.70;;;;;;;14.22;72.36;100004.31;5031949;28;97313;-87
2022/10/24 01:26:08;;;;;;;12.00;8.20;;;;;;;14.36;72.20;100011.47;5033327;28;97341;-89
2022/10/24 01:28:37;;;;;;;17.27;8.95;;;;;;;14.36;72.13;100003.53;5034364;28;101514;-88
2022/10/24 01:31:07;;;;;;;13.98;8.95;;;;;;;14.32;71.86;99988.81;5026188;27;97676;-87
2022/10/24 01:33:39;;;;;;;12.23;8.35;;;;;;;14.28;71.85;99976.72;5017662;28;96792;-88
2022/10/24 01:36:36;;;;;;;14.90;8.95;;;;;;;14.44;71.39;99982.84;5009172;28;97278;-88
2022/10/24 01:39:05;;;;;;;13.55;9.52;;;;;;;14.36;71.80;99971.00;5033685;28;101497;-89
2022/10/24 01:41:32;;;;;;;16.83;9.35;;;;;;;14.24;71.82;99961.97;5042172;27;101033;-88
2022/10/24 01:44:04;;;;;;;13.40;9.20;;;;;;;14.32;71.68;99967.69;5025796;28;97162;-88
2022/10/24 01:46:39;;;;;;;13.23;8.68;;;;;;;14.24;72.20;99964.63;5000721;28;96862;-88
2022/10/24 01:49:26;;;;;;;12.10;7.70;;;;;;;14.14;72.18;99959.00;5032817;27;101114;-88
2022/10/24 01:51:55;;;;;;;12.38;9.35;;;;;;;14.13;72.49;99959.06;5033793;28;101459;-87
2022/10/24 01:54:21;;;;;;;13.30;8.70;;;;;;;14.05;72.52;99925.19;4987289;28;96593;-89
2022/10/24 01:56:46;;;;;;;17.17;9.00;;;;;;;14.29;72.03;99940.63;5051593;27;96757;-89
2022/10/24 01:59:27;;;;;;;12.70;8.43;;;;;;;14.18;72.37;99943.84;5027234;28;97529;-88
2022/10/24 02:02:07;;;;;;;12.47;8.80;;;;;;;14.20;72.69;99941.97;5008203;28;100580;-87
2022/10/24 02:04:35;;;;;;;10.43;8.57;;;;;;;14.20;72.38;99944.63;5002579;28;96720;-87
2022/10/24 02:07:03;;;;;;;13.35;8.02;;;;;;;14.26;72.62;99955.69;5017444;28;96900;-88
2022/10/24 02:09:29;;;;;;;10.48;8.18;;;;;;;14.30;72.04;99948.44;5000020;28;101279;-89
2022/10/24 02:11:56;;;;;;;13.85;8.48;;;;;;;14.24;72.25;99960.19;5016707;28;101365;-87
2022/10/24 02:14:48;;;;;;;15.27;9.38;;;;;;;14.15;72.20;99967.78;5015036;28;97796;-87
2022/10/24 02:17:14;;;;;;;15.30;9.43;;;;;;;13.96;73.14;99970.53;5033491;28;97255;-89
2022/10/24 02:19:39;;;;;;;11.23;8.70;;;;;;;13.91;73.59;99985.78;5010176;28;100434;-89
2022/10/24 02:22:16;;;;;;;12.70;8.60;;;;;;;13.77;73.64;99955.69;5023343;28;97323;-88
2022/10/24 02:24:51;;;;;;;11.05;7.68;;;;;;;13.82;74.27;99973.94;5067260;27;97084;-88
2022/10/24 02:27:21;;;;;;;10.50;8.13;;;;;;;13.78;73.95;99961.81;5016617;28;96939;-89
2022/10/24 02:30:13;;;;;;;9.70;7.38;;;;;;;13.63;75.00;99931.81;5016982;28;98171;-89
2022/10/24 02:32:44;;;;;;;11.70;7.65;;;;;;;13.90;74.02;99962.94;4995573;28;99510;-88
2022/10/24 02:35:12;;;;;;;13.32;7.43;;;;;;;13.80;74.17;99952.03;5049656;27;97086;-88
2022/10/24 02:37:46;;;;;;;8.65;6.82;;;;;;;14.03;73.50;99966.66;5033585;27;97519;-89
2022/10/24 02:40:14;;;;;;;8.90;6.80;;;;;;;14.01;73.71;99968.50;5015718;28;97943;-88
2022/10/24 02:42:42;;;;;;;12.00;6.53;;;;;;;13.95;73.46;99945.09;4999845;28;100534;-88
2022/10/24 02:45:09;;;;;;;8.20;6.20;;;;;;;14.08;73.17;99959.34;5065518;27;96994;-87
2022/10/24 02:47:37;;;;;;;8.27;5.70;;;;;;;14.07;73.55;99959.41;5058058;27;97927;-87
2022/10/24 02:50:03;;;;;;;7.22;5.68;;;;;;;13.97;73.73;99959.91;5031643;28;101402;-88
2022/10/24 02:52:29;;;;;;;12.45;5.55;;;;;;;13.97;73.87;99959.06;5033095;28;101168;-88
2022/10/24 02:54:55;;;;;;;7.53;5.97;;;;;;;14.06;73.53;99961.19;5033499;27;96636;-88
2022/10/24 02:57:22;;;;;;;6.03;5.20;;;;;;;14.12;73.58;99962.66;5067621;27;96914;-89
2022/10/24 02:59:48;;;;;;;7.82;4.97;;;;;;;14.04;73.41;99960.44;5016197;28;101381;-88
2022/10/24 03:02:14;;;;;;;8.55;5.63;;;;;;;14.09;73.85;99952.28;4995201;28;100159;-88
2022/10/24 03:04:39;;;;;;;7.03;4.97;;;;;;;14.07;73.62;99941.78;5009754;28;96824;-88
2022/10/24 03:07:06;;;;;;;6.57;5.15;;;;;;;14.00;73.73;99957.09;5011781;28;96849;-88
2022/10/24 03:09:32;;;;;;;5.28;4.78;;;;;;;14.11;73.45;99961.81;5012370;28;98417;-88
2022/10/24 03:11:58;;;;;;;7.88;4.93;;;;;;;14.06;73.33;99968.28;5012350;28;102187;-88
2022/10/24 03:14:24;;;;;;;7.32;4.88;;;;;;;14.03;73.88;99959.56;5012277;28;96605;-87
2022/10/24 03:16:49;;;;;;;5.30;4.78;;;;;;;13.99;73.77;99954.53;5013471;28;96852;-88
2022/10/24 03:19:15;;;;;;;8.45;5.38;;;;;;;13.95;73.38;99930.09;4995206;28;101598;-88
2022/10/24 03:21:41;;;;;;;8.13;4.60;;;;;;;14.18;73.22;99938.56;5012625;28;100093;-88
2022/10/24 03:24:07;;;;;;;7.82;4.50;;;;;;;14.16;73.06;99949.19;4997881;28;96838;-88
2022/10/24 03:26:32;;;;;;;5.40;4.45;;;;;;;14.10;73.19;99931.06;5012179;28;96953;-89
2022/10/24 03:28:58;;;;;;;6.95;4.35;;;;;;;13.96;73.37;99929.19;5018087;28;101320;-88
2022/10/24 03:31:24;;;;;;;4.55;4.10;;;;;;;14.08;73.35;99942.63;5019212;28;98470;-89
2022/10/24 03:33:49;;;;;;;7.25;4.55;;;;;;;14.00;73.61;99938.63;5012742;28;96707;-89
2022/10/24 03:36:15;;;;;;;8.05;4.55;;;;;;;13.98;73.66;99935.22;5012095;28;97006;-89
2022/10/24 03:38:40;;;;;;;4.80;4.07;;;;;;;13.99;73.74;99931.66;5011959;28;101966;-89
2022/10/24 03:41:06;;;;;;;5.03;4.53;;;;;;;14.00;73.73;99940.44;5010454;28;100902;-87
2022/10/24 03:43:31;;;;;;;5.00;4.18;;;;;;;13.94;73.81;99931.06;5011907;28;96936;-88
2022/10/24 03:45:58;;;;;;;6.18;4.53;;;;;;;14.06;73.70;99926.91;5012736;28;97099;-88
2022/10/24 03:48:24;;;;;;;4.97;4.20;;;;;;;13.97;74.08;99930.03;5022387;28;98001;-88
2022/10/24 03:50:49;;;;;;;6.18;4.63;;;;;;;13.96;74.12;99921.28;4992036;28;101012;-88
2022/10/24 03:53:15;;;;;;;4.97;4.15;;;;;;;14.11;73.48;99940.69;5005810;28;97101;-89
2022/10/24 03:55:41;;;;;;;4.20;3.67;;;;;;;13.91;73.55;99901.34;5012188;28;97369;-88
2022/10/24 03:58:06;;;;;;;4.45;4.05;;;;;;;14.10;73.46;99943.41;4994086;28;100894;-87
2022/10/24 04:00:37;;;;;;;6.68;4.35;;;;;;;13.99;73.27;99921.09;5028088;27;98217;-88
2022/10/24 04:03:03;;;;;;;6.15;4.30;;;;;;;14.08;73.68;99900.41;5019420;27;96716;-89
2022/10/24 04:05:29;;;;;;;4.80;4.10;;;;;;;14.16;73.48;99911.41;5035860;27;96871;-88
2022/10/24 04:07:55;;;;;;;9.15;4.25;;;;;;;14.08;73.19;99919.75;5018709;27;101577;-87
2022/10/24 04:10:20;;;;;;;4.70;3.78;;;;;;;14.07;73.45;99902.19;5034582;27;101407;-87
2022/10/24 04:12:46;;;;;;;4.15;3.75;;;;;;;14.05;73.30;99912.00;5014162;27;96601;-88
2022/10/24 04:15:11;;;;;;;7.95;4.35;;;;;;;14.09;73.35;99926.72;5026064;27;97343;-86
2022/10/24 04:17:37;;;;;;;6.53;3.60;;;;;;;14.13;73.48;99928.25;5018054;27;99246;-88
2022/10/24 04:20:03;;;;;;;5.30;3.90;;;;;;;14.23;72.75;99924.19;5017759;27;99811;-87
2022/10/24 04:22:29;;;;;;;5.82;3.80;;;;;;;14.24;73.18;99923.22;5018519;27;96933;-88
2022/10/24 04:24:54;;;;;;;4.75;3.92;;;;;;;14.14;73.56;99927.34;5035862;27;97977;-88
2022/10/24 04:27:20;;;;;;;6.13;4.30;;;;;;;14.02;73.46;99915.66;5037111;27;96920;-89
2022/10/24 04:29:46;;;;;;;6.57;4.20;;;;;;;14.17;73.22;99936.88;5021886;27;99985;-88
2022/10/24 04:32:11;;;;;;;6.25;3.97;;;;;;;14.17;73.18;99939.50;5021129;27;97193;-87
2022/10/24 04:34:37;;;;;;;4.75;3.70;;;;;;;14.13;73.01;99922.97;5031453;28;98314;-88
2022/10/24 04:37:02;;;;;;;4.43;3.67;;;;;;;14.14;73.41;99944.97;5023082;27;101329;-85
2022/10/24 04:39:28;;;;;;;5.00;3.80;;;;;;;14.18;73.09;99926.22;5015169;27;100183;-87
2022/10/24 04:41:54;;;;;;;7.85;5.10;;;;;;;14.15;73.97;99931.66;5039379;27;96787;-89
2022/10/24 04:44:19;;;;;;;4.82;4.18;;;;;;;14.19;74.29;99927.06;5021476;27;96947;-88
2022/10/24 04:46:45;;;;;;;7.38;4.47;;;;;;;14.23;74.59;99942.66;5038503;27;98566;-88
2022/10/24 04:49:10;;;;;;;7.10;4.50;;;;;;;14.28;73.93;99947.66;5018207;28;97276;-89
2022/10/24 04:51:36;;;;;;;8.35;5.00;;;;;;;14.31;74.46;99949.28;5035238;27;97857;-88
2022/10/24 04:54:01;;;;;;;7.63;4.22;;;;;;;14.30;74.55;99942.31;5022791;27;97284;-88
2022/10/24 04:56:27;;;;;;;5.10;4.60;;;;;;;14.30;74.06;99929.13;5020212;27;97707;-88
2022/10/24 04:58:52;;;;;;;8.80;4.80;;;;;;;14.33;74.44;99945.63;5038474;27;100892;-88
2022/10/24 05:01:18;;;;;;;5.25;4.00;;;;;;;14.43;73.56;99953.91;5054141;27;96833;-89
2022/10/24 05:03:44;;;;;;;6.75;4.03;;;;;;;14.49;72.88;99954.41;5038578;27;96782;-89
2022/10/24 05:06:09;;;;;;;4.22;3.30;;;;;;;14.53;72.58;99954.28;5042303;27;102197;-90
2022/10/24 05:08:35;;;;;;;6.72;3.97;;;;;;;14.47;72.44;99955.44;5022031;27;101573;-90
2022/10/24 05:11:01;;;;;;;7.63;4.30;;;;;;;14.34;73.06;99947.34;5028547;27;97311;-89
2022/10/24 05:13:26;;;;;;;6.72;4.07;;;;;;;14.37;72.55;99948.94;5024505;27;97186;-84
2022/10/24 05:15:52;;;;;;;5.07;3.88;;;;;;;14.48;72.36;99965.91;5009325;27;101662;-85
2022/10/24 05:18:17;;;;;;;6.72;4.38;;;;;;;14.38;72.41;99959.44;4999989;27;101183;-83
2022/10/24 05:20:43;;;;;;;5.75;4.30;;;;;;;14.43;72.13;99956.56;5036113;27;96762;-93
2022/10/24 05:23:09;;;;;;;8.43;4.40;;;;;;;14.41;72.26;99953.97;5019659;27;96934;-85
2022/10/24 05:25:34;;;;;;;9.88;4.47;;;;;;;14.38;72.25;99950.66;5014399;27;101201;-90
2022/10/24 05:28:00;;;;;;;6.60;4.30;;;;;;;14.44;72.28;99942.41;5019798;27;101802;-87
2022/10/24 05:30:26;;;;;;;6.65;4.43;;;;;;;14.44;72.20;99945.88;5017623;27;96729;-88
2022/10/24 05:32:51;;;;;;;5.95;4.18;;;;;;;14.47;72.54;99948.34;5036169;27;97352;-88
2022/10/24 05:35:17;;;;;;;8.27;4.20;;;;;;;14.33;72.90;99936.88;5030702;27;101547;-88
2022/10/24 05:37:42;;;;;;;5.97;4.32;;;;;;;14.46;72.97;99957.22;5014777;27;101370;-92
2022/10/24 05:40:10;;;;;;;6.20;4.60;;;;;;;14.50;72.85;99957.91;5037472;27;96896;-82
2022/10/24 05:42:37;;;;;;;6.05;4.28;;;;;;;14.57;73.00;99958.44;5020140;27;96886;-85
2022/10/24 05:45:05;;;;;;;5.15;3.70;;;;;;;14.64;72.14;99951.88;5028032;27;101354;-86
2022/10/24 05:47:30;;;;;;;7.70;4.65;;;;;;;14.62;72.72;99970.44;5036997;27;100943;-87
2022/10/24 05:49:56;;;;;;;9.77;4.50;;;;;;;14.49;73.09;99964.97;5019385;27;96828;-88
2022/10/24 05:52:21;;;;;;;8.13;3.92;;;;;;;14.46;73.35;99962.50;5036208;27;96951;-86
2022/10/24 05:54:47;;;;;;;6.45;4.60;;;;;;;14.32;74.07;99948.38;5019336;27;97448;-89
2022/10/24 05:57:12;;;;;;;9.27;4.75;;;;;;;14.48;73.55;99965.91;5036315;27;98487;-87
2022/10/24 05:59:38;;;;;;;6.55;4.45;;;;;;;14.52;73.94;99974.56;5018835;27;96740;-87
2022/10/24 06:02:03;;;;;;;11.77;5.35;;;;;;;14.48;74.05;99979.09;5038966;27;97032;-88
2022/10/24 06:04:29;;;;;;;7.97;4.90;;;;;;;14.55;74.02;99984.09;5047531;27;100261;-87
2022/10/24 06:06:54;;;;;;;11.95;5.18;;;;;;;14.50;74.38;99987.81;5019399;27;101485;-88
2022/10/24 06:09:20;;;;;;;8.02;4.57;;;;;;;14.50;74.49;99974.59;5036728;27;97567;-88
2022/10/24 06:11:46;;;;;;;6.60;4.93;;;;;;;14.50;73.91;99964.03;5020524;27;96963;-88
2022/10/24 06:14:12;;;;;;;8.60;4.60;;;;;;;14.69;73.01;99968.34;5054385;27;97290;-86
2022/10/24 06:16:38;;;;;;;8.32;4.03;;;;;;;14.61;72.95;99954.69;5029184;27;101716;-88
2022/10/24 06:19:03;;;;;;;6.22;3.55;;;;;;;14.70;72.47;99976.16;5018676;27;97047;-88
2022/10/24 06:21:29;;;;;;;6.68;3.85;;;;;;;14.72;72.40;99984.00;5000259;27;97204;-88
2022/10/24 06:23:55;;;;;;;5.45;3.55;;;;;;;14.69;72.07;99976.25;5020074;27;98044;-88
2022/10/24 06:26:20;;;;;;;5.75;3.70;;;;;;;14.68;72.29;99982.47;5036010;27;97407;-89
2022/10/24 06:28:46;;;;;;;6.50;3.97;;;;;;;14.69;72.47;99985.03;5037287;27;98190;-87
2022/10/24 06:31:12;;;;;;;5.63;3.83;;;;;;;14.66;72.78;99987.84;5036724;27;97765;-83
2022/10/24 06:33:37;;;;;;;6.82;3.60;;;;;;;14.69;72.80;99987.66;5017409;27;101049;-88
2022/10/24 06:36:05;;;;;;;5.65;3.50;;;;;;;14.69;73.13;99981.53;5025230;28;98290;-88
2022/10/24 06:38:31;;;;;;;10.70;3.90;;;;;;;14.82;72.86;99995.75;5031612;27;97193;-88
2022/10/24 06:40:57;;;;;;;5.10;3.40;;;;;;;14.86;73.47;99993.78;5019455;27;96701;-86
2022/10/24 06:43:22;;;;;;;5.80;3.47;;;;;;;14.81;73.21;99978.19;5035874;27;101793;-91
2022/10/24 06:45:48;;;;;;;8.13;3.30;;;;;;;15.02;72.97;99996.41;5019257;27;101878;-91
2022/10/24 06:48:14;;;;;;;8.82;3.15;;;;;;;14.99;73.05;99978.94;5017520;27;96791;-89
2022/10/24 06:50:39;;;;;;;6.07;3.28;;;;;;;15.07;73.14;99984.63;5013652;27;96888;-85
2022/10/24 06:53:06;;;;;;;6.45;3.47;;;;;;;15.21;73.28;99994.38;5051173;27;97862;-89
2022/10/24 06:55:32;;;;;;;6.50;3.40;;;;;;;15.20;72.86;99992.69;5030778;28;100944;-90
2022/10/24 06:57:58;;;;;;;5.43;3.75;;;;;;;15.25;73.03;99990.63;5038583;27;96732;-87
2022/10/24 07:00:23;;;;;;;7.38;3.75;;;;;;;15.20;72.90;99986.56;5025859;27;97320;-89
2022/10/24 07:02:49;;;;;;;8.20;3.50;;;;;;;15.19;72.85;99975.13;5018258;27;100817;-91
2022/10/24 07:05:14;;;;;;;26.02;7.57;;;;;;;15.44;72.97;99997.47;5034905;27;100490;-87
2022/10/24 07:07:41;;;;;;;20.33;6.25;;;;;;;15.46;72.72;99996.44;5050757;27;99849;-87
2022/10/24 07:10:07;;;;;;;32.22;8.23;;;;;;;15.42;72.61;99984.34;5013634;28;97070;-90
2022/10/24 07:12:32;;;;;;;14.68;4.43;;;;;;;15.42;72.87;99988.75;5006712;27;100210;-89
2022/10/24 07:14:58;;;;;;;12.85;3.83;;;;;;;15.45;72.85;100004.50;5013747;27;100420;-93
2022/10/24 07:17:23;;;;;;;8.52;4.25;;;;;;;15.51;72.93;99999.66;5019037;27;97554;-92
2022/10/24 07:19:53;;;;;;;10.25;3.85;;;;;;;15.53;72.78;99997.78;5000983;27;97667;-91
2022/10/24 07:22:19;;;;;;;9.02;3.70;;;;;;;15.47;72.96;99968.19;5018880;27;101018;-92
2022/10/24 07:24:45;;;;;;;5.68;3.20;;;;;;;15.61;72.74;99998.16;5022512;27;101509;-92
2022/10/24 07:27:11;;;;;;;8.50;3.67;;;;;;;15.59;72.79;99986.84;5036022;27;96906;-92
2022/10/24 07:29:39;;;;;;;9.50;4.47;;;;;;;15.68;72.84;99997.81;5046131;27;96705;-91
2022/10/24 07:32:05;;;;;;;6.07;3.38;;;;;;;15.72;72.62;100000.22;5036087;27;97555;-93
2022/10/24 07:34:31;;;;;;;6.50;3.88;;;;;;;15.81;72.41;100002.28;5017757;27;99952;-91
2022/10/24 07:36:56;;;;;;;5.85;2.97;;;;;;;15.84;72.49;100001.25;5036381;27;96699;-92
2022/10/24 07:39:22;;;;;;;5.32;2.97;;;;;;;16.00;71.71;100014.44;5035495;27;96765;-91
2022/10/24 07:41:47;;;;;;;6.50;3.70;;;;;;;15.98;71.90;100009.22;5018195;27;100239;-92
2022/10/24 07:44:13;;;;;;;5.47;3.30;;;;;;;16.05;71.77;100013.16;5019618;27;100756;-92
2022/10/24 07:46:40;;;;;;;5.80;3.22;;;;;;;16.01;71.80;100006.38;5034702;27;97258;-92
2022/10/24 07:49:07;;;;;;;10.02;3.17;;;;;;;16.00;71.57;100003.84;5019239;27;96726;-91
2022/10/24 07:51:33;;;;;;;7.50;3.65;;;;;;;16.18;71.56;100020.38;5035082;27;101366;-92
2022/10/24 07:53:59;;;;;;;10.98;3.60;;;;;;;16.30;71.09;100017.81;5018541;27;100270;-93
2022/10/24 07:56:25;;;;;;;9.10;2.95;;;;;;;16.46;71.11;100020.34;5009351;27;96872;-92
2022/10/24 07:58:51;;;;;;;9.40;3.25;;;;;;;16.48;70.75;100021.09;5028450;27;97796;-92
2022/10/24 08:01:21;;;;;;;7.80;3.03;;;;;;;16.58;70.16;100012.56;5036831;27;98248;-93
2022/10/24 08:03:46;;;;;;;10.02;3.55;;;;;;;16.60;69.92;100000.91;5056398;27;100328;-92
2022/10/24 08:06:17;;;;;;;8.43;3.13;;;;;;;16.84;69.12;100013.56;5022543;27;96844;-93
2022/10/24 08:08:43;;;;;;;4.85;2.70;;;;;;;16.70;69.34;99995.88;5009496;27;96775;-92
2022/10/24 08:11:14;;;;;;;6.22;2.85;;;;;;;16.68;69.30;100006.56;5040042;27;100934;-91
2022/10/24 08:13:40;;;;;;;9.00;2.65;;;;;;;16.78;69.17;100025.41;5028959;27;100895;-87
2022/10/24 08:16:11;;;;;;;6.10;2.85;;;;;;;16.76;69.27;100022.03;5037894;27;96745;-85
2022/10/24 08:18:37;;;;;;;8.82;2.58;;;;;;;16.74;69.42;100015.94;5015452;27;96969;-86
2022/10/24 08:21:05;;;;;;;5.30;2.53;;;;;;;16.72;69.68;100016.00;5037725;27;98367;-89
2022/10/24 08:23:32;;;;;;;6.13;2.83;;;;;;;16.63;69.33;100002.50;5015554;28;99755;-90
2022/10/24 08:25:58;;;;;;;5.97;2.47;;;;;;;16.72;69.51;100012.53;5035511;27;96774;-90
2022/10/24 08:28:24;;;;;;;11.13;3.13;;;;;;;16.72;69.66;100008.06;5020704;27;97241;-86
2022/10/24 08:31:07;;;;;;;8.75;2.60;;;;;;;16.77;69.51;100012.28;5022432;27;101101;-85
2022/10/24 08:33:33;;;;;;;4.55;2.67;;;;;;;16.79;69.32;100005.91;5022395;27;101644;-85
2022/10/24 08:36:05;;;;;;;5.38;3.22;;;;;;;16.84;69.68;100010.91;5020273;27;98375;-86
2022/10/24 08:38:30;;;;;;;5.65;3.17;;;;;;;16.86;69.53;100001.06;5006500;28;96893;-85
2022/10/24 08:40:57;;;;;;;4.70;2.47;;;;;;;16.93;70.42;99995.28;5003627;27;101443;-88
2022/10/24 08:43:23;;;;;;;8.35;2.40;;;;;;;17.02;70.03;99990.31;5024133;27;97993;-80
2022/10/24 08:46:01;;;;;;;11.85;3.28;;;;;;;17.09;68.90;100005.72;5025022;27;96737;-84
2022/10/24 08:48:31;;;;;;;5.07;2.38;;;;;;;17.04;69.06;99999.84;5040122;27;96867;-83
2022/10/24 08:51:03;;;;;;;7.68;2.53;;;;;;;17.03;68.96;99984.91;5023737;27;100308;-85
2022/10/24 08:53:28;;;;;;;;;;;;;;;17.25;69.55;100007.34;5020955;27;101549;-84
2022/10/24 08:55:56;;;;;;;7.65;2.60;;;;;;;17.34;69.44;100004.09;5037811;27;96870;-83
2022/10/24 08:58:41;;;;;;;11.57;2.65;;;;;;;17.48;68.34;100009.28;5021198;27;97229;-81
2022/10/24 09:01:16;;;;;;;6.10;1.95;;;;;;;17.52;67.94;99986.06;5061436;27;98458;-85
2022/10/24 09:03:48;;;;;;;5.90;2.30;;;;;;;17.57;67.47;99982.16;5051596;27;98081;-84
2022/10/24 09:06:19;;;;;;;10.30;3.33;;;;;;;17.72;67.41;99998.84;5021002;27;97481;-83
2022/10/24 09:08:53;;;;;;;8.18;2.42;;;;;;;17.80;66.92;100000.97;5017529;27;96897;-85
2022/10/24 09:11:48;;;;;;;5.50;2.35;;;;;;;18.04;66.40;99991.31;5036452;27;98243;-82
2022/10/24 09:14:17;;;;;;;7.57;2.20;;;;;;;18.40;65.37;99999.44;5052605;27;97993;-84
2022/10/24 09:16:44;;;;;;;4.30;2.38;;;;;;;19.02;63.80;99982.53;5036980;27;96839;-84
2022/10/24 09:19:20;;;;;;;8.65;2.20;;;;;;;19.61;62.19;99977.16;5020916;27;96898;-83
2022/10/24 09:21:47;;;;;;;4.82;2.05;;;;;;;20.35;60.65;99986.41;5018873;27;101102;-85
2022/10/24 09:24:26;;;;;;;7.15;2.20;;;;;;;20.76;58.84;99992.06;5040082;27;101756;-84
2022/10/24 09:26:51;;;;;;;6.22;2.13;;;;;;;21.19;57.89;99972.50;5033420;27;96802;-85
2022/10/24 09:29:17;;;;;;;6.25;1.75;;;;;;;21.63;56.79;99987.47;5020364;27;97496;-82
2022/10/24 09:31:43;;;;;;;5.80;2.38;;;;;;;22.10;56.31;99990.50;5015503;27;99112;-84
2022/10/24 09:34:08;;;;;;;6.18;1.98;;;;;;;22.56;55.16;99991.00;5012456;27;101375;-84
2022/10/24 09:36:34;;;;;;;14.30;2.90;;;;;;;22.74;54.46;99983.97;5025604;27;97381;-84
2022/10/24 09:39:24;;;;;;;7.35;2.67;;;;;;;23.28;54.03;99984.47;5056185;27;97217;-85
2022/10/24 09:41:50;;;;;;;6.87;2.77;;;;;;;23.63;53.62;99977.66;5003958;27;101397;-84
2022/10/24 09:44:27;;;;;;;5.65;2.45;;;;;;;23.89;52.67;99985.94;5027774;27;101647;-82
2022/10/24 09:46:53;;;;;;;5.22;1.80;;;;;;;24.00;49.78;99980.41;5036101;27;97137;-83
2022/10/24 09:49:21;;;;;;;4.28;1.80;;;;;;;24.05;50.38;99977.28;5035230;27;97157;-83
2022/10/24 09:51:57;;;;;;;3.50;1.55;;;;;;;24.15;49.87;99980.78;5039479;27;98001;-83
2022/10/24 09:54:26;;;;;;;3.35;1.80;;;;;;;24.12;49.41;99984.59;5019409;27;101385;-83
2022/10/24 09:56:56;;;;;;;6.75;1.63;;;;;;;24.15;48.31;99986.13;5020684;27;96860;-83
2022/10/24 09:59:36;;;;;;;5.65;2.00;;;;;;;24.15;48.71;99996.84;5018530;27;96992;-80
2022/10/24 10:02:23;;;;;;;4.68;2.20;;;;;;;24.04;49.11;99965.72;5025221;27;99492;-82
2022/10/24 10:05:00;;;;;;;7.68;3.13;;;;;;;24.18;50.78;99983.16;5049605;27;101124;-83
2022/10/24 10:07:28;;;;;;;11.38;1.83;;;;;;;24.21;50.57;99979.34;5053436;27;96812;-82
2022/10/24 10:09:58;;;;;;;5.18;1.75;;;;;;;24.00;50.19;99971.50;5015817;27;98015;-78
2022/10/24 10:12:35;;;;;;;3.42;1.77;;;;;;;23.93;49.84;99976.59;5048376;27;101027;-81
2022/10/24 10:15:03;;;;;;;5.50;2.22;;;;;;;23.70;50.90;99973.44;5022087;27;97887;-83
2022/10/24 10:17:32;;;;;;;9.93;2.42;;;;;;;23.47;51.67;99971.06;5038146;27;98135;-81
2022/10/24 10:19:58;;;;;;;3.25;1.60;;;;;;;23.17;49.99;99969.41;5018888;27;96849;-84
2022/10/24 10:22:31;;;;;;;6.82;1.88;;;;;;;22.81;51.12;99970.91;5043578;27;98450;-79
2022/10/24 10:24:58;;;;;;;5.32;1.83;;;;;;;22.48;51.30;99972.09;5023370;27;97659;-79
2022/10/24 10:27:38;;;;;;;4.43;1.85;;;;;;;22.21;52.11;99956.69;5036974;27;97853;-82
2022/10/24 10:30:14;;;;;;;7.43;1.52;;;;;;;22.19;51.93;99972.00;5017271;27;96967;-79
2022/10/24 10:33:18;;;;;;;5.25;1.73;;;;;;;21.90;52.83;99952.19;5018558;27;101255;-79
2022/10/24 10:35:55;;;;;;;10.32;2.00;;;;;;;21.98;53.06;99964.03;5048611;27;97678;-78
2022/10/24 10:38:39;;;;;;;4.95;1.80;;;;;;;21.60;53.66;99909.44;5042004;27;97355;-78
2022/10/24 10:41:33;;;;;;;6.15;2.58;;;;;;;21.79;54.11;99956.78;5029148;27;96827;-79
2022/10/24 10:44:32;;;;;;;10.90;1.98;;;;;;;21.76;54.28;99965.91;5030103;27;100270;-78
2022/10/24 10:47:22;;;;;;;4.35;2.05;;;;;;;21.74;54.02;99967.84;5058648;27;97954;-81
2022/10/24 10:49:53;;;;;;;7.03;1.88;;;;;;;21.58;54.30;99954.94;5052475;27;97984;-81
2022/10/24 10:52:24;;;;;;;8.63;2.58;;;;;;;21.63;54.34;99970.59;5035750;27;96832;-79
2022/10/24 10:54:58;;;;;;;6.27;2.17;;;;;;;21.62;54.77;99963.56;5016455;27;101448;-78
2022/10/24 10:57:32;;;;;;;8.38;2.10;;;;;;;21.66;55.46;99963.16;5021775;27;101491;-80
2022/10/24 11:00:07;;;;;;;6.53;1.95;;;;;;;21.67;55.44;99956.88;5045932;27;97325;-78
2022/10/24 11:02:50;;;;;;;6.88;2.00;;;;;;;21.67;55.00;99959.53;5045558;27;96890;-81
2022/10/24 11:05:35;;;;;;;8.48;2.10;;;;;;;21.58;54.83;99954.94;5019712;27;102253;-79
2022/10/24 11:08:19;;;;;;;11.60;2.80;;;;;;;21.62;55.16;99947.56;5037078;27;97629;-80
2022/10/24 11:11:04;;;;;;;7.50;2.40;;;;;;;21.61;54.81;99945.84;5031372;27;98288;-79
2022/10/24 11:13:33;;;;;;;10.63;2.63;;;;;;;21.53;55.40;99941.19;5034774;27;97134;-84
2022/10/24 11:16:01;;;;;;;7.10;2.05;;;;;;;21.58;55.43;99954.13;5027599;27;98120;-82
2022/10/24 11:18:35;;;;;;;5.43;1.80;;;;;;;21.47;55.09;99955.91;5016154;27;97996;-82
2022/10/24 11:21:05;;;;;;;6.22;2.28;;;;;;;21.50;55.08;99957.47;5014369;27;96982;-82
2022/10/24 11:23:53;;;;;;;6.20;2.43;;;;;;;21.41;54.83;99943.06;5018815;27;97013;-84
2022/10/24 11:26:27;;;;;;;5.97;2.30;;;;;;;21.34;55.21;99925.84;5046080;27;97874;-84
2022/10/24 11:29:20;;;;;;;8.40;2.25;;;;;;;21.42;55.12;99942.09;5017904;27;100918;-82
2022/10/24 11:31:49;;;;;;;8.52;2.50;;;;;;;21.40;55.29;99933.34;4998955;27;97085;-86
2022/10/24 11:34:20;;;;;;;9.18;2.22;;;;;;;21.38;55.82;99940.66;5018207;27;97304;-83
2022/10/24 11:37:04;;;;;;;28.52;8.48;;;;;;;21.35;58.61;99924.00;5001583;28;102433;-79